Time;durP1;ratioP1;P1;durP2;ratioP2;P2;SDS_P1;SDS_P2;PMS_P1;PMS_P2;Temp;Humidity;BMP_temperature;BMP_pressure;BME280_temperature;BME280_humidity;BME280_pressure;Samples;Min_cycle;Max_cycle;Signal;HPM_P1;HPM_P2
2024/03/31 00:02:12;;;;;;;11.65;2.58;;;;;;;;;;4976666;28;20069;-81
2024/03/31 00:04:40;;;;;;;8.43;3.10;;;;;;;;;;4993351;28;20049;-82
2024/03/31 00:07:09;;;;;;;9.07;2.53;;;;;;;;;;4992801;28;20046;-82
2024/03/31 00:09:37;;;;;;;10.30;2.75;;;;;;;;;;4993011;28;20042;-81
2024/03/31 00:12:06;;;;;;;8.10;2.72;;;;;;;;;;4992800;28;20405;-83
2024/03/31 00:14:34;;;;;;;13.57;2.80;;;;;;;;;;4991741;28;20081;-83
2024/03/31 00:17:02;;;;;;;10.52;2.53;;;;;;;;;;4992776;28;20050;-81
2024/03/31 00:19:33;;;;;;;5.57;2.30;;;;;;;;;;4944278;28;20055;-81
2024/03/31 00:22:01;;;;;;;6.45;2.65;;;;;;;;;;4950284;28;20042;-82
2024/03/31 00:24:30;;;;;;;8.95;2.38;;;;;;;;;;4971450;28;20055;-82
2024/03/31 00:26:59;;;;;;;7.53;2.58;;;;;;;;;;4972156;28;20050;-80
2024/03/31 00:29:27;;;;;;;10.63;2.83;;;;;;;;;;4971406;28;20057;-81
2024/03/31 00:31:55;;;;;;;7.70;3.17;;;;;;;;;;4955181;28;20062;-81
2024/03/31 00:34:23;;;;;;;6.93;2.78;;;;;;;;;;4972296;28;20065;-82
2024/03/31 00:36:52;;;;;;;5.95;2.55;;;;;;;;;;4956306;28;20050;-83
2024/03/31 00:39:20;;;;;;;5.50;2.95;;;;;;;;;;4940315;28;20529;-81
2024/03/31 00:41:48;;;;;;;12.48;3.00;;;;;;;;;;4972094;28;20058;-80
2024/03/31 00:44:16;;;;;;;9.20;3.33;;;;;;;;;;4972159;28;20047;-80
2024/03/31 00:46:44;;;;;;;11.98;3.58;;;;;;;;;;4974645;28;20502;-84
2024/03/31 00:49:12;;;;;;;9.80;2.88;;;;;;;;;;4975992;28;20047;-81
2024/03/31 00:51:41;;;;;;;11.05;3.53;;;;;;;;;;4975852;28;20409;-82
2024/03/31 00:54:10;;;;;;;11.25;3.90;;;;;;;;;;4959533;28;20065;-83
2024/03/31 00:56:38;;;;;;;9.40;3.15;;;;;;;;;;4975598;28;20051;-82
2024/03/31 00:59:06;;;;;;;7.55;3.20;;;;;;;;;;4975425;28;20119;-82
2024/03/31 01:01:34;;;;;;;14.15;3.38;;;;;;;;;;4965483;28;20064;-81
2024/03/31 01:04:02;;;;;;;9.60;3.72;;;;;;;;;;4957320;28;20047;-79
2024/03/31 01:06:31;;;;;;;7.43;3.17;;;;;;;;;;4956234;28;20047;-85
2024/03/31 01:08:59;;;;;;;8.75;3.15;;;;;;;;;;4940474;29;20054;-81
2024/03/31 01:11:28;;;;;;;10.23;3.30;;;;;;;;;;4955987;28;20051;-84
2024/03/31 01:13:59;;;;;;;9.45;3.78;;;;;;;;;;4940124;29;20410;-81
2024/03/31 01:16:28;;;;;;;10.02;3.28;;;;;;;;;;4956247;29;20502;-80
2024/03/31 01:18:56;;;;;;;13.07;3.08;;;;;;;;;;4956054;29;20047;-84
2024/03/31 01:21:28;;;;;;;6.20;2.83;;;;;;;;;;4955028;28;20055;-84
2024/03/31 01:24:00;;;;;;;7.22;3.33;;;;;;;;;;4955147;29;20513;-82
2024/03/31 01:26:29;;;;;;;9.27;3.33;;;;;;;;;;4954985;29;20046;-82
2024/03/31 01:28:57;;;;;;;12.02;3.88;;;;;;;;;;4955081;28;20136;-82
2024/03/31 01:31:26;;;;;;;7.15;3.78;;;;;;;;;;4939226;28;20051;-82
2024/03/31 01:33:55;;;;;;;10.60;4.22;;;;;;;;;;4955200;28;20113;-82
2024/03/31 01:36:23;;;;;;;11.98;4.60;;;;;;;;;;4974483;28;20055;-82
2024/03/31 01:38:52;;;;;;;13.45;3.67;;;;;;;;;;4974482;28;20051;-82
2024/03/31 01:41:20;;;;;;;6.70;3.00;;;;;;;;;;4975372;28;20051;-81
2024/03/31 01:43:48;;;;;;;9.70;3.90;;;;;;;;;;4966933;28;20061;-81
2024/03/31 01:46:16;;;;;;;11.07;3.40;;;;;;;;;;4951951;28;20054;-80
2024/03/31 01:48:45;;;;;;;7.65;3.42;;;;;;;;;;4983911;28;20059;-83
2024/03/31 01:51:13;;;;;;;9.50;3.22;;;;;;;;;;4967731;28;20073;-80
2024/03/31 01:53:41;;;;;;;7.43;3.30;;;;;;;;;;4990693;28;20046;-82
2024/03/31 01:56:09;;;;;;;10.85;3.40;;;;;;;;;;4994985;28;20042;-81
2024/03/31 01:58:37;;;;;;;7.95;3.55;;;;;;;;;;4979715;28;20031;-82
2024/03/31 02:01:05;;;;;;;7.53;3.30;;;;;;;;;;4981225;28;20047;-79
2024/03/31 02:03:34;;;;;;;8.73;3.05;;;;;;;;;;4988368;28;20051;-81
2024/03/31 02:06:11;;;;;;;11.15;3.55;;;;;;;;;;4960065;28;20735;-80
2024/03/31 02:08:40;;;;;;;11.13;3.63;;;;;;;;;;4965801;28;20051;-79
2024/03/31 02:11:08;;;;;;;7.45;3.00;;;;;;;;;;4944928;29;20059;-84
2024/03/31 02:13:36;;;;;;;7.68;2.95;;;;;;;;;;4925864;29;20078;-81
2024/03/31 02:16:05;;;;;;;14.18;3.25;;;;;;;;;;4956100;29;20078;-83
2024/03/31 02:18:33;;;;;;;6.25;3.20;;;;;;;;;;4939502;29;20059;-84
2024/03/31 02:21:01;;;;;;;8.02;3.30;;;;;;;;;;4939620;29;20390;-83
2024/03/31 02:23:29;;;;;;;8.80;3.42;;;;;;;;;;4954341;28;20063;-82
2024/03/31 02:25:57;;;;;;;7.10;3.28;;;;;;;;;;4940598;29;20047;-84
2024/03/31 02:28:26;;;;;;;8.27;3.05;;;;;;;;;;4939970;29;20052;-82
2024/03/31 02:30:54;;;;;;;16.27;3.53;;;;;;;;;;4939103;29;20054;-83
2024/03/31 02:33:22;;;;;;;11.35;3.28;;;;;;;;;;4923730;29;20052;-85
2024/03/31 02:35:50;;;;;;;9.60;2.85;;;;;;;;;;4939345;29;20067;-83
2024/03/31 02:38:21;;;;;;;9.23;3.47;;;;;;;;;;4940803;29;20051;-82
2024/03/31 02:40:50;;;;;;;11.07;3.47;;;;;;;;;;4955247;29;20058;-83
2024/03/31 02:43:18;;;;;;;7.80;3.13;;;;;;;;;;4938955;29;20513;-83
2024/03/31 02:45:49;;;;;;;11.10;4.30;;;;;;;;;;4940256;29;20051;-84
2024/03/31 02:48:17;;;;;;;7.20;3.03;;;;;;;;;;4939468;29;20051;-82
2024/03/31 02:50:49;;;;;;;9.60;3.40;;;;;;;;;;4939727;29;20063;-82
2024/03/31 02:53:18;;;;;;;7.25;3.50;;;;;;;;;;4924033;28;20164;-83
2024/03/31 02:55:46;;;;;;;7.63;2.88;;;;;;;;;;4938718;29;20058;-82
2024/03/31 02:58:14;;;;;;;6.20;3.13;;;;;;;;;;4938877;28;20051;-82
2024/03/31 03:00:42;;;;;;;9.13;3.60;;;;;;;;;;4940862;28;20062;-83
2024/03/31 03:03:11;;;;;;;9.23;3.70;;;;;;;;;;4956031;28;20050;-80
2024/03/31 03:05:39;;;;;;;13.15;3.15;;;;;;;;;;4936595;29;20055;-81
2024/03/31 03:08:07;;;;;;;9.35;2.90;;;;;;;;;;4950027;28;20061;-82
2024/03/31 03:10:35;;;;;;;7.75;3.05;;;;;;;;;;4956961;28;20058;-81
2024/03/31 03:13:04;;;;;;;12.50;3.40;;;;;;;;;;4973586;28;20053;-83
2024/03/31 03:15:36;;;;;;;11.65;3.67;;;;;;;;;;4954377;28;20043;-83
2024/03/31 03:18:05;;;;;;;12.88;3.47;;;;;;;;;;4949296;29;20047;-84
2024/03/31 03:20:41;;;;;;;14.00;3.25;;;;;;;;;;4933591;28;20051;-82
2024/03/31 03:23:10;;;;;;;8.30;3.17;;;;;;;;;;4925467;28;20043;-82
2024/03/31 03:25:39;;;;;;;8.75;3.97;;;;;;;;;;4969098;28;20425;-83
2024/03/31 03:28:07;;;;;;;11.20;3.30;;;;;;;;;;4949278;29;20051;-83
2024/03/31 03:30:38;;;;;;;8.68;3.22;;;;;;;;;;4937403;29;20510;-82
2024/03/31 03:33:07;;;;;;;10.25;3.00;;;;;;;;;;4938422;29;20058;-84
2024/03/31 03:35:37;;;;;;;8.48;3.08;;;;;;;;;;4938526;28;20406;-84
2024/03/31 03:38:09;;;;;;;8.77;3.80;;;;;;;;;;4938796;29;20047;-82
2024/03/31 03:40:41;;;;;;;6.55;2.97;;;;;;;;;;4938199;29;20491;-82
2024/03/31 03:43:12;;;;;;;9.93;3.05;;;;;;;;;;4939010;28;20074;-82
2024/03/31 03:45:49;;;;;;;5.60;2.85;;;;;;;;;;4939146;28;20051;-82
2024/03/31 03:48:17;;;;;;;9.98;3.38;;;;;;;;;;4954194;28;20066;-81
2024/03/31 03:50:45;;;;;;;10.02;2.72;;;;;;;;;;4938207;29;20055;-81
2024/03/31 03:53:13;;;;;;;9.48;3.35;;;;;;;;;;4922390;29;20051;-81
2024/03/31 03:55:43;;;;;;;6.90;3.08;;;;;;;;;;4937826;29;20047;-81
2024/03/31 03:58:13;;;;;;;8.60;3.10;;;;;;;;;;4938246;28;20119;-81
2024/03/31 04:00:42;;;;;;;8.43;2.92;;;;;;;;;;4937752;28;20055;-81
2024/03/31 04:03:10;;;;;;;8.13;3.22;;;;;;;;;;4954510;28;20425;-80
2024/03/31 04:05:38;;;;;;;5.93;3.17;;;;;;;;;;4953262;29;20491;-81
2024/03/31 04:08:07;;;;;;;7.68;3.13;;;;;;;;;;4937907;29;20504;-81
2024/03/31 04:10:39;;;;;;;6.10;2.90;;;;;;;;;;4937845;29;20058;-81
2024/03/31 04:13:07;;;;;;;15.25;3.50;;;;;;;;;;4953412;28;20058;-80
2024/03/31 04:15:35;;;;;;;7.57;3.03;;;;;;;;;;4921807;29;20055;-81
2024/03/31 04:18:04;;;;;;;10.57;2.97;;;;;;;;;;4937910;29;20414;-80
2024/03/31 04:20:32;;;;;;;5.95;3.40;;;;;;;;;;4938634;29;20055;-80
2024/03/31 04:23:01;;;;;;;6.57;2.85;;;;;;;;;;4942323;29;20062;-80
2024/03/31 04:25:29;;;;;;;8.55;3.58;;;;;;;;;;4941632;28;20483;-80
2024/03/31 04:27:59;;;;;;;7.82;2.88;;;;;;;;;;4950789;28;20160;-81
2024/03/31 04:30:27;;;;;;;8.70;2.75;;;;;;;;;;4960574;28;20077;-80
2024/03/31 04:32:55;;;;;;;10.13;3.30;;;;;;;;;;4960595;28;20075;-81
2024/03/31 04:35:24;;;;;;;7.32;3.50;;;;;;;;;;4961500;28;20050;-81
2024/03/31 04:37:53;;;;;;;9.15;3.15;;;;;;;;;;4961261;28;20429;-80
2024/03/31 04:40:23;;;;;;;6.95;3.53;;;;;;;;;;4960894;28;20166;-80
2024/03/31 04:42:52;;;;;;;7.90;3.40;;;;;;;;;;4960972;28;20054;-81
2024/03/31 04:45:20;;;;;;;8.27;2.92;;;;;;;;;;4961021;28;20058;-80
2024/03/31 04:47:48;;;;;;;7.50;3.45;;;;;;;;;;4960396;28;20050;-81
2024/03/31 04:50:19;;;;;;;8.52;2.97;;;;;;;;;;4976011;28;20077;-81
2024/03/31 04:52:47;;;;;;;8.27;3.47;;;;;;;;;;4977069;28;20042;-81
2024/03/31 04:55:16;;;;;;;10.88;3.28;;;;;;;;;;4960115;28;20414;-80
2024/03/31 04:57:45;;;;;;;9.45;3.20;;;;;;;;;;4960858;28;20061;-81
2024/03/31 05:00:13;;;;;;;14.35;3.45;;;;;;;;;;4976319;28;20382;-81
2024/03/31 05:02:45;;;;;;;8.95;2.80;;;;;;;;;;4960957;28;20051;-80
2024/03/31 05:05:14;;;;;;;14.48;3.60;;;;;;;;;;4960494;28;20054;-82
2024/03/31 05:07:42;;;;;;;7.60;3.30;;;;;;;;;;4960426;28;20509;-81
2024/03/31 05:10:15;;;;;;;6.63;3.65;;;;;;;;;;4960443;28;20050;-83
2024/03/31 05:13:08;;;;;;;11.82;3.63;;;;;;;;;;4976332;28;20054;-82
2024/03/31 05:15:36;;;;;;;11.98;4.10;;;;;;;;;;4944639;28;20047;-82
2024/03/31 05:18:05;;;;;;;8.88;3.63;;;;;;;;;;4976149;28;20421;-82
2024/03/31 05:20:33;;;;;;;12.90;3.35;;;;;;;;;;4959917;28;20061;-81
2024/03/31 05:23:03;;;;;;;8.98;3.67;;;;;;;;;;4959941;28;20050;-81
2024/03/31 05:25:34;;;;;;;13.23;3.55;;;;;;;;;;4959753;28;20505;-80
2024/03/31 05:28:03;;;;;;;10.65;3.58;;;;;;;;;;4944038;28;20070;-80
2024/03/31 05:30:31;;;;;;;6.38;3.13;;;;;;;;;;4959101;28;20061;-80
2024/03/31 05:33:01;;;;;;;16.20;3.13;;;;;;;;;;4959289;28;20054;-81
2024/03/31 05:35:44;;;;;;;11.50;3.30;;;;;;;;;;4961448;28;20062;-81
2024/03/31 05:38:15;;;;;;;11.82;3.20;;;;;;;;;;4959573;28;20058;-81
2024/03/31 05:40:46;;;;;;;8.60;3.17;;;;;;;;;;4960328;28;20059;-82
2024/03/31 05:43:15;;;;;;;8.35;3.63;;;;;;;;;;4975475;28;20058;-81
2024/03/31 05:45:43;;;;;;;7.47;3.05;;;;;;;;;;4975741;28;20058;-81
2024/03/31 05:48:12;;;;;;;10.00;3.40;;;;;;;;;;4975237;28;20062;-81
2024/03/31 05:50:47;;;;;;;7.28;3.38;;;;;;;;;;4959951;28;20055;-81
2024/03/31 05:53:15;;;;;;;8.02;3.20;;;;;;;;;;4959545;28;20049;-80
2024/03/31 05:55:44;;;;;;;10.55;3.40;;;;;;;;;;4959138;28;20057;-81
2024/03/31 05:58:12;;;;;;;10.13;3.10;;;;;;;;;;4959308;28;20050;-81
2024/03/31 06:00:40;;;;;;;8.93;3.25;;;;;;;;;;4959286;28;20047;-81
2024/03/31 06:03:10;;;;;;;8.45;2.63;;;;;;;;;;4959218;28;20051;-81
2024/03/31 06:05:38;;;;;;;6.75;2.92;;;;;;;;;;4958944;28;20052;-81
2024/03/31 06:08:08;;;;;;;6.60;2.97;;;;;;;;;;4959040;28;20078;-81
2024/03/31 06:10:36;;;;;;;7.60;3.42;;;;;;;;;;4943147;28;20066;-81
2024/03/31 06:13:06;;;;;;;6.63;3.42;;;;;;;;;;4959120;28;20378;-81
2024/03/31 06:15:34;;;;;;;6.82;3.03;;;;;;;;;;4958968;28;20050;-81
2024/03/31 06:18:02;;;;;;;6.75;2.85;;;;;;;;;;4958500;28;20129;-81
2024/03/31 06:20:31;;;;;;;7.28;3.40;;;;;;;;;;4959276;28;20063;-81
2024/03/31 06:22:59;;;;;;;7.10;3.88;;;;;;;;;;4959049;28;20414;-81
2024/03/31 06:25:28;;;;;;;7.32;3.75;;;;;;;;;;4958853;28;20180;-80
2024/03/31 06:27:56;;;;;;;7.80;2.55;;;;;;;;;;4958759;28;20066;-81
2024/03/31 06:30:24;;;;;;;8.73;3.28;;;;;;;;;;4958684;28;20058;-82
2024/03/31 06:32:53;;;;;;;8.18;3.05;;;;;;;;;;4958377;28;20058;-81
2024/03/31 06:35:21;;;;;;;13.07;4.78;;;;;;;;;;4974598;28;20054;-82
2024/03/31 06:37:49;;;;;;;5.85;2.85;;;;;;;;;;4958444;28;20054;-82
2024/03/31 06:40:17;;;;;;;6.68;2.85;;;;;;;;;;4974713;28;20517;-81
2024/03/31 06:42:46;;;;;;;6.90;3.28;;;;;;;;;;4958229;28;20053;-81
2024/03/31 06:45:14;;;;;;;11.25;2.88;;;;;;;;;;4958312;28;20066;-82
2024/03/31 06:47:42;;;;;;;10.07;3.33;;;;;;;;;;4958416;28;20061;-81
2024/03/31 06:50:10;;;;;;;7.05;2.83;;;;;;;;;;4957810;28;20058;-81
2024/03/31 06:52:38;;;;;;;11.43;2.92;;;;;;;;;;4974658;28;20057;-81
2024/03/31 06:55:07;;;;;;;5.43;2.80;;;;;;;;;;4958458;28;20065;-82
2024/03/31 06:57:36;;;;;;;6.13;2.53;;;;;;;;;;4958306;28;20066;-81
2024/03/31 07:00:05;;;;;;;11.20;3.42;;;;;;;;;;4958082;28;20387;-81
2024/03/31 07:02:33;;;;;;;8.70;3.10;;;;;;;;;;4958023;28;20058;-81
2024/03/31 07:05:04;;;;;;;7.88;3.95;;;;;;;;;;4958214;28;20050;-81
2024/03/31 07:07:34;;;;;;;6.22;3.38;;;;;;;;;;4958332;28;20050;-81
2024/03/31 07:10:02;;;;;;;13.05;2.92;;;;;;;;;;4941995;28;20417;-79
2024/03/31 07:12:33;;;;;;;7.18;2.90;;;;;;;;;;4958160;28;20051;-79
2024/03/31 07:15:03;;;;;;;8.00;3.00;;;;;;;;;;4957696;28;20513;-81
2024/03/31 07:17:36;;;;;;;;;;;;;;;;;;4958070;28;20481;-82
2024/03/31 07:20:06;;;;;;;;;;;;;;;;;;4958454;28;19922;-80
2024/03/31 07:22:35;;;;;;;8.75;2.85;;;;;;;;;;4957757;28;20399;-82
2024/03/31 07:25:04;;;;;;;6.13;2.88;;;;;;;;;;4974238;28;20420;-81
2024/03/31 07:27:32;;;;;;;7.70;2.92;;;;;;;;;;4942242;28;20513;-81
2024/03/31 07:30:01;;;;;;;12.07;3.15;;;;;;;;;;4957038;28;20047;-80
2024/03/31 07:32:29;;;;;;;6.88;3.33;;;;;;;;;;4957524;28;20378;-81
2024/03/31 07:34:57;;;;;;;11.05;3.00;;;;;;;;;;4957509;28;20051;-80
2024/03/31 07:37:26;;;;;;;8.02;3.03;;;;;;;;;;4957650;28;20043;-81
2024/03/31 07:39:54;;;;;;;8.10;2.95;;;;;;;;;;4973463;28;20059;-81
2024/03/31 07:42:22;;;;;;;7.07;3.05;;;;;;;;;;4973661;28;20065;-82
2024/03/31 07:44:50;;;;;;;8.18;3.00;;;;;;;;;;4973622;28;20053;-82
2024/03/31 07:47:19;;;;;;;6.18;2.58;;;;;;;;;;4957111;28;20046;-82
2024/03/31 07:49:47;;;;;;;7.30;2.85;;;;;;;;;;4973488;28;20046;-81
2024/03/31 07:52:16;;;;;;;6.05;2.92;;;;;;;;;;4972973;28;20050;-83
2024/03/31 07:54:45;;;;;;;9.30;3.15;;;;;;;;;;4973584;28;20043;-83
2024/03/31 07:57:15;;;;;;;7.68;2.88;;;;;;;;;;4972954;28;20149;-81
2024/03/31 07:59:45;;;;;;;10.77;3.40;;;;;;;;;;4973855;28;20051;-82
2024/03/31 08:02:13;;;;;;;5.60;2.83;;;;;;;;;;4973569;28;20051;-81
2024/03/31 08:04:41;;;;;;;8.10;3.33;;;;;;;;;;4973265;28;20359;-82
2024/03/31 08:07:09;;;;;;;8.02;2.75;;;;;;;;;;4957147;28;20058;-82
2024/03/31 08:09:37;;;;;;;8.98;3.05;;;;;;;;;;4972989;28;20047;-83
2024/03/31 08:12:05;;;;;;;9.50;3.22;;;;;;;;;;4972364;28;20070;-82
2024/03/31 08:14:33;;;;;;;12.52;4.53;;;;;;;;;;4973218;28;20067;-83
2024/03/31 08:17:02;;;;;;;13.93;3.83;;;;;;;;;;4972529;28;20061;-82
2024/03/31 08:19:30;;;;;;;7.45;3.75;;;;;;;;;;4973751;28;20058;-82
2024/03/31 08:21:58;;;;;;;7.38;3.75;;;;;;;;;;4957333;28;20508;-82
2024/03/31 08:24:26;;;;;;;9.23;3.22;;;;;;;;;;4978992;28;20059;-82
2024/03/31 08:26:54;;;;;;;6.88;3.15;;;;;;;;;;4971700;28;20065;-82
2024/03/31 08:29:24;;;;;;;7.57;3.42;;;;;;;;;;4969601;28;20055;-82
2024/03/31 08:31:52;;;;;;;8.55;3.47;;;;;;;;;;4987785;28;20039;-82
2024/03/31 08:34:20;;;;;;;6.80;3.17;;;;;;;;;;4997811;28;20045;-81
2024/03/31 08:36:48;;;;;;;9.80;4.00;;;;;;;;;;4997872;28;20049;-83
2024/03/31 08:39:16;;;;;;;11.75;3.42;;;;;;;;;;4997204;28;20039;-81
2024/03/31 08:42:00;;;;;;;5.90;3.17;;;;;;;;;;4970002;28;20518;-82
2024/03/31 08:44:30;;;;;;;11.40;3.40;;;;;;;;;;4973597;28;20053;-82
2024/03/31 08:46:58;;;;;;;10.02;3.30;;;;;;;;;;4972951;28;20050;-82
2024/03/31 08:49:26;;;;;;;8.07;3.03;;;;;;;;;;4957036;28;20047;-82
2024/03/31 08:51:54;;;;;;;11.63;3.42;;;;;;;;;;4972547;28;20066;-82
2024/03/31 08:54:23;;;;;;;7.40;3.45;;;;;;;;;;4972264;28;20062;-82
2024/03/31 08:56:51;;;;;;;6.93;3.20;;;;;;;;;;4973258;28;20058;-82
2024/03/31 08:59:19;;;;;;;8.50;3.38;;;;;;;;;;4972437;28;20066;-83
2024/03/31 09:01:48;;;;;;;8.25;3.45;;;;;;;;;;4956601;28;20066;-83
2024/03/31 09:04:16;;;;;;;6.57;3.15;;;;;;;;;;4972837;28;20061;-83
2024/03/31 09:06:44;;;;;;;7.13;2.97;;;;;;;;;;4974229;28;20057;-86
2024/03/31 09:09:12;;;;;;;7.38;3.20;;;;;;;;;;4976374;28;20065;-82
2024/03/31 09:11:40;;;;;;;6.70;3.42;;;;;;;;;;4976619;28;20047;-82
2024/03/31 09:14:09;;;;;;;10.85;3.83;;;;;;;;;;4960997;28;20050;-82
2024/03/31 09:16:37;;;;;;;7.70;3.42;;;;;;;;;;4976420;28;20055;-82
2024/03/31 09:19:05;;;;;;;11.45;3.92;;;;;;;;;;4976667;28;20053;-82
2024/03/31 09:21:43;;;;;;;5.75;3.20;;;;;;;;;;4976071;28;20043;-80
2024/03/31 09:24:12;;;;;;;;;;;;;;;;;;4975662;28;20106;-80
2024/03/31 09:26:41;;;;;;;13.40;4.45;;;;;;;;;;4976495;28;19929;-80
2024/03/31 09:29:10;;;;;;;10.23;4.05;;;;;;;;;;4975988;28;20047;-82
2024/03/31 09:31:38;;;;;;;5.60;3.22;;;;;;;;;;4958355;28;20078;-80
2024/03/31 09:34:07;;;;;;;9.77;3.65;;;;;;;;;;4975727;28;20055;-83
2024/03/31 09:36:39;;;;;;;7.70;3.35;;;;;;;;;;4975812;28;20055;-82
2024/03/31 09:39:08;;;;;;;9.52;3.63;;;;;;;;;;4975876;28;20043;-81
2024/03/31 09:41:37;;;;;;;7.22;3.63;;;;;;;;;;4959651;28;20062;-82
2024/03/31 09:44:05;;;;;;;9.75;3.50;;;;;;;;;;4975660;28;20047;-82
2024/03/31 09:46:34;;;;;;;5.68;3.25;;;;;;;;;;4975666;28;20490;-82
2024/03/31 09:49:03;;;;;;;8.00;3.30;;;;;;;;;;4976034;28;20047;-82
2024/03/31 09:51:34;;;;;;;9.30;3.00;;;;;;;;;;4959761;28;20055;-82
2024/03/31 09:54:13;;;;;;;9.07;3.47;;;;;;;;;;4975817;28;20057;-82
2024/03/31 09:56:46;;;;;;;9.73;3.20;;;;;;;;;;4965092;28;20051;-82
2024/03/31 09:59:16;;;;;;;16.90;4.22;;;;;;;;;;4990801;28;20054;-82
2024/03/31 10:01:46;;;;;;;7.80;3.53;;;;;;;;;;4975353;28;20058;-81
2024/03/31 10:04:31;;;;;;;5.85;3.03;;;;;;;;;;4975320;28;20047;-83
2024/03/31 10:07:00;;;;;;;8.57;3.13;;;;;;;;;;4975186;28;20050;-82
2024/03/31 10:09:29;;;;;;;11.50;3.65;;;;;;;;;;4975850;28;20039;-81
2024/03/31 10:12:00;;;;;;;9.02;3.50;;;;;;;;;;4959498;28;20054;-81
2024/03/31 10:14:30;;;;;;;7.15;3.53;;;;;;;;;;4957836;28;20043;-82
2024/03/31 10:16:58;;;;;;;7.65;3.50;;;;;;;;;;4960814;28;20039;-83
2024/03/31 10:19:28;;;;;;;8.02;4.00;;;;;;;;;;4972635;28;20042;-83
2024/03/31 10:21:59;;;;;;;11.45;3.63;;;;;;;;;;4974388;28;20050;-83
2024/03/31 10:24:29;;;;;;;10.73;3.25;;;;;;;;;;4973871;28;20140;-80
2024/03/31 10:26:57;;;;;;;7.82;3.72;;;;;;;;;;4958122;28;20063;-82
2024/03/31 10:29:26;;;;;;;12.15;4.10;;;;;;;;;;4972556;28;20394;-81
2024/03/31 10:31:54;;;;;;;9.63;3.78;;;;;;;;;;4957166;28;20414;-81
2024/03/31 10:34:23;;;;;;;8.52;4.13;;;;;;;;;;4957893;28;20047;-79
2024/03/31 10:36:52;;;;;;;12.10;3.53;;;;;;;;;;4957347;28;20062;-81
2024/03/31 10:39:24;;;;;;;11.75;4.70;;;;;;;;;;4956739;28;20047;-81
2024/03/31 10:41:52;;;;;;;12.88;5.35;;;;;;;;;;4968692;28;20485;-82
2024/03/31 10:44:21;;;;;;;13.65;5.43;;;;;;;;;;4972411;28;20055;-85
2024/03/31 10:46:50;;;;;;;8.80;4.55;;;;;;;;;;4972939;28;20049;-85
2024/03/31 10:49:18;;;;;;;10.43;4.00;;;;;;;;;;4957054;28;20054;-83
2024/03/31 10:51:47;;;;;;;5.78;2.80;;;;;;;;;;4947414;29;20059;-85
2024/03/31 10:54:31;;;;;;;5.93;3.03;;;;;;;;;;4971911;28;20110;-84
2024/03/31 10:57:05;;;;;;;5.20;2.78;;;;;;;;;;4957533;28;20477;-83
2024/03/31 10:59:33;;;;;;;6.60;2.40;;;;;;;;;;4972209;28;20078;-82
2024/03/31 11:02:20;;;;;;;4.88;2.65;;;;;;;;;;4973680;28;20486;-82
2024/03/31 11:05:03;;;;;;;7.93;3.10;;;;;;;;;;4957797;28;20533;-83
2024/03/31 11:07:43;;;;;;;5.38;2.33;;;;;;;;;;4973476;28;20046;-83
2024/03/31 11:10:14;;;;;;;8.32;3.58;;;;;;;;;;4973514;28;20103;-83
2024/03/31 11:12:46;;;;;;;6.80;2.42;;;;;;;;;;4973491;28;20047;-84
2024/03/31 11:15:15;;;;;;;8.23;2.80;;;;;;;;;;4973357;28;20050;-82
2024/03/31 11:17:44;;;;;;;7.63;2.75;;;;;;;;;;4973171;28;20043;-84
2024/03/31 11:20:14;;;;;;;11.85;3.05;;;;;;;;;;4973348;28;20058;-83
2024/03/31 11:22:43;;;;;;;5.38;2.80;;;;;;;;;;4973297;28;20050;-84
2024/03/31 11:25:11;;;;;;;6.90;3.25;;;;;;;;;;4972603;28;20046;-83
2024/03/31 11:27:40;;;;;;;7.53;2.90;;;;;;;;;;4972956;28;20054;-84
2024/03/31 11:30:09;;;;;;;8.88;2.75;;;;;;;;;;4957166;28;20529;-82
2024/03/31 11:32:39;;;;;;;6.18;2.58;;;;;;;;;;4973717;28;20149;-83
2024/03/31 11:35:08;;;;;;;4.70;2.55;;;;;;;;;;4973037;28;20058;-82
2024/03/31 11:37:36;;;;;;;7.90;3.00;;;;;;;;;;4973132;28;20047;-83
2024/03/31 11:40:06;;;;;;;5.85;2.65;;;;;;;;;;4973324;28;20049;-83
2024/03/31 11:42:34;;;;;;;5.75;2.53;;;;;;;;;;4972747;28;20043;-83
2024/03/31 11:45:03;;;;;;;10.75;2.88;;;;;;;;;;4972828;28;20043;-83
2024/03/31 11:47:31;;;;;;;6.85;3.47;;;;;;;;;;4993758;28;20366;-83
2024/03/31 11:50:00;;;;;;;4.72;2.58;;;;;;;;;;4976687;28;20050;-82
2024/03/31 11:52:28;;;;;;;8.45;3.17;;;;;;;;;;4992782;28;20050;-82
2024/03/31 11:54:57;;;;;;;16.92;6.15;;;;;;;;;;4993244;28;20046;-83
2024/03/31 11:57:25;;;;;;;6.32;2.70;;;;;;;;;;4992897;28;20061;-83
2024/03/31 11:59:56;;;;;;;6.68;2.65;;;;;;;;;;4992931;28;20053;-83
2024/03/31 12:02:25;;;;;;;7.80;2.70;;;;;;;;;;4976865;28;20054;-84
2024/03/31 12:04:53;;;;;;;12.27;3.78;;;;;;;;;;4992863;28;20069;-82
2024/03/31 12:07:22;;;;;;;5.57;3.30;;;;;;;;;;4992837;28;20398;-83
2024/03/31 12:09:51;;;;;;;5.65;3.10;;;;;;;;;;4992081;28;20062;-84
2024/03/31 12:12:19;;;;;;;5.55;2.88;;;;;;;;;;4976441;28;20050;-85
2024/03/31 12:14:47;;;;;;;4.22;2.63;;;;;;;;;;4992286;28;20050;-84
2024/03/31 12:17:15;;;;;;;7.35;3.20;;;;;;;;;;4992699;28;20042;-83
2024/03/31 12:19:44;;;;;;;6.25;2.97;;;;;;;;;;4992481;28;20047;-83
2024/03/31 12:22:13;;;;;;;6.57;2.65;;;;;;;;;;4992738;28;20046;-83
2024/03/31 12:24:43;;;;;;;6.43;3.45;;;;;;;;;;4992255;28;20069;-83
2024/03/31 12:27:11;;;;;;;6.47;2.72;;;;;;;;;;4992940;28;20050;-83
2024/03/31 12:29:43;;;;;;;5.47;2.55;;;;;;;;;;4992642;28;20046;-84
2024/03/31 12:32:11;;;;;;;;;;;;;;;;;;4992309;28;20062;-84
2024/03/31 12:34:40;;;;;;;10.85;3.58;;;;;;;;;;4976074;28;19921;-85
2024/03/31 12:37:09;;;;;;;9.20;3.47;;;;;;;;;;4992746;28;20050;-84
2024/03/31 12:39:37;;;;;;;5.35;3.17;;;;;;;;;;4960183;28;20057;-83
2024/03/31 12:42:05;;;;;;;6.75;3.10;;;;;;;;;;4994123;28;20481;-83
2024/03/31 12:44:34;;;;;;;6.80;3.20;;;;;;;;;;4980211;28;20065;-84
2024/03/31 12:47:03;;;;;;;4.80;2.33;;;;;;;;;;4996595;28;20042;-82
2024/03/31 12:49:31;;;;;;;5.57;2.85;;;;;;;;;;4996213;28;20054;-83
2024/03/31 12:52:05;;;;;;;9.90;2.83;;;;;;;;;;4980875;28;20050;-84
2024/03/31 12:54:36;;;;;;;6.07;2.58;;;;;;;;;;4997101;28;20046;-83
2024/03/31 12:57:04;;;;;;;8.65;4.05;;;;;;;;;;4996536;28;20072;-82
2024/03/31 12:59:42;;;;;;;7.68;4.40;;;;;;;;;;4996380;28;20054;-86
2024/03/31 13:02:11;;;;;;;13.77;10.05;;;;;;;;;;4980024;28;20058;-83
2024/03/31 13:04:40;;;;;;;10.68;4.40;;;;;;;;;;4996270;28;20046;-83
2024/03/31 13:07:09;;;;;;;8.13;4.40;;;;;;;;;;4979397;28;20374;-82
2024/03/31 13:09:37;;;;;;;6.55;3.60;;;;;;;;;;4995469;28;20046;-83
2024/03/31 13:12:06;;;;;;;6.25;3.53;;;;;;;;;;4995627;28;20042;-84
2024/03/31 13:14:35;;;;;;;10.85;3.90;;;;;;;;;;4994725;28;20058;-81
2024/03/31 13:17:04;;;;;;;13.15;4.75;;;;;;;;;;4979189;28;20054;-83
2024/03/31 13:19:32;;;;;;;5.78;3.20;;;;;;;;;;4979995;28;20500;-82
2024/03/31 13:22:02;;;;;;;8.02;3.50;;;;;;;;;;4994364;28;20062;-84
2024/03/31 13:24:32;;;;;;;6.70;3.70;;;;;;;;;;4994155;28;20083;-84
2024/03/31 13:27:00;;;;;;;5.72;3.05;;;;;;;;;;4994071;28;20046;-82
2024/03/31 13:29:28;;;;;;;5.55;3.58;;;;;;;;;;4994517;28;20061;-83
2024/03/31 13:32:00;;;;;;;6.03;3.42;;;;;;;;;;4994460;28;20058;-82
2024/03/31 13:34:30;;;;;;;6.03;3.08;;;;;;;;;;4995344;28;20070;-82
2024/03/31 13:36:59;;;;;;;5.38;3.20;;;;;;;;;;4994429;28;20065;-83
2024/03/31 13:39:29;;;;;;;6.30;3.25;;;;;;;;;;4995217;28;20049;-83
2024/03/31 13:41:57;;;;;;;7.68;4.18;;;;;;;;;;4994042;28;20054;-82
2024/03/31 13:44:26;;;;;;;7.32;3.85;;;;;;;;;;4993984;28;20489;-81
2024/03/31 13:46:54;;;;;;;7.32;3.13;;;;;;;;;;4994485;28;20065;-82
2024/03/31 13:49:22;;;;;;;4.90;3.40;;;;;;;;;;4994035;28;20405;-82
2024/03/31 13:51:51;;;;;;;6.53;2.78;;;;;;;;;;4994817;28;20054;-83
2024/03/31 13:54:19;;;;;;;10.73;4.18;;;;;;;;;;4994188;28;20054;-84
2024/03/31 13:56:47;;;;;;;4.13;2.55;;;;;;;;;;4994186;28;20059;-83
2024/03/31 13:59:19;;;;;;;3.85;2.55;;;;;;;;;;4994014;28;20497;-84
2024/03/31 14:01:47;;;;;;;5.20;2.63;;;;;;;;;;4993920;28;20058;-84
2024/03/31 14:04:16;;;;;;;6.88;2.30;;;;;;;;;;4993960;28;20054;-84
2024/03/31 14:06:44;;;;;;;5.75;2.80;;;;;;;;;;4978242;28;20054;-82
2024/03/31 14:09:13;;;;;;;5.88;1.73;;;;;;;;;;4993848;28;20054;-83
2024/03/31 14:11:42;;;;;;;7.07;2.10;;;;;;;;;;4993569;28;20053;-83
2024/03/31 14:14:10;;;;;;;5.80;2.20;;;;;;;;;;4994653;28;20042;-82
2024/03/31 14:16:38;;;;;;;4.60;2.00;;;;;;;;;;4994759;28;20054;-83
2024/03/31 14:19:06;;;;;;;4.47;2.38;;;;;;;;;;4993842;28;20062;-83
2024/03/31 14:21:38;;;;;;;4.68;1.85;;;;;;;;;;4993638;28;20059;-83
2024/03/31 14:24:06;;;;;;;4.68;2.20;;;;;;;;;;4992937;28;20061;-82
2024/03/31 14:26:34;;;;;;;5.07;1.77;;;;;;;;;;4994663;28;20054;-82
2024/03/31 14:29:03;;;;;;;4.47;1.90;;;;;;;;;;4993441;28;20054;-84
2024/03/31 14:31:31;;;;;;;3.40;1.83;;;;;;;;;;4994352;28;20046;-83
2024/03/31 14:33:59;;;;;;;4.38;1.85;;;;;;;;;;4993322;28;20054;-82
2024/03/31 14:36:27;;;;;;;6.78;3.67;;;;;;;;;;4993054;28;20497;-83
2024/03/31 14:38:55;;;;;;;5.45;2.63;;;;;;;;;;4994252;28;20049;-85
2024/03/31 14:41:23;;;;;;;4.00;1.80;;;;;;;;;;4993362;28;20050;-82
2024/03/31 14:43:51;;;;;;;7.93;4.60;;;;;;;;;;4993937;28;20042;-83
2024/03/31 14:46:19;;;;;;;5.35;2.55;;;;;;;;;;4993677;28;20066;-83
2024/03/31 14:48:48;;;;;;;5.18;2.15;;;;;;;;;;4992908;28;20055;-83
2024/03/31 14:51:16;;;;;;;4.85;1.90;;;;;;;;;;4993338;28;20512;-83
2024/03/31 14:53:44;;;;;;;3.13;1.90;;;;;;;;;;4977750;28;20057;-82